Time;durP1;ratioP1;P1;durP2;ratioP2;P2;SDS_P1;SDS_P2;PMS_P1;PMS_P2;Temp;Humidity;BMP_temperature;BMP_pressure;BME280_temperature;BME280_humidity;BME280_pressure;Samples;Min_cycle;Max_cycle;Signal;HPM_P1;HPM_P2
2023/06/03 00:00:11;;;;;;;2.83;0.60;;;22.30;98.00;;;;;;1905927;73;25727;-57
2023/06/03 00:03:00;;;;;;;1.90;0.70;;;22.30;98.00;;;;;;1901825;73;25230;-59
2023/06/03 00:08:27;;;;;;;8.60;0.70;;;22.30;98.00;;;;;;1928034;72;27445;-57
2023/06/03 00:11:16;;;;;;;0.53;0.40;;;22.30;97.90;;;;;;1908303;73;25232;-58
2023/06/03 00:14:05;;;;;;;0.50;0.50;;;22.30;98.00;;;;;;1905478;73;25257;-59
2023/06/03 00:16:54;;;;;;;1.70;0.50;;;22.20;97.90;;;;;;1917809;73;25186;-57
2023/06/03 00:19:43;;;;;;;0.60;0.60;;;22.20;97.90;;;;;;1913822;73;25167;-58
2023/06/03 00:22:32;;;;;;;0.83;0.60;;;22.20;97.90;;;;;;1911772;74;25534;-58
2023/06/03 00:25:21;;;;;;;0.53;0.53;;;22.20;97.90;;;;;;1911654;73;25254;-59
2023/06/03 00:28:10;;;;;;;0.57;0.57;;;22.20;97.90;;;;;;1912100;73;25293;-58
2023/06/03 00:33:38;;;;;;;0.57;0.50;;;22.20;97.90;;;;;;1947205;72;26997;-57
2023/06/03 00:39:11;;;;;;;0.60;0.50;;;22.20;97.90;;;;;;1927728;72;27074;-58
2023/06/03 00:42:01;;;;;;;2.43;0.50;;;22.20;97.90;;;;;;1943586;72;25236;-58
2023/06/03 00:44:50;;;;;;;0.67;0.57;;;22.20;97.90;;;;;;1922238;73;25289;-58
2023/06/03 00:47:39;;;;;;;1.57;0.57;;;22.20;97.90;;;;;;1918791;73;25165;-59
2023/06/03 00:50:29;;;;;;;1.20;0.80;;;22.20;97.80;;;;;;1910797;73;25242;-59
2023/06/03 00:53:18;;;;;;;1.97;0.60;;;22.20;97.80;;;;;;1908691;73;25156;-59
2023/06/03 00:58:46;;;;;;;0.50;0.50;;;22.20;97.90;;;;;;1930566;73;27062;-55
2023/06/03 01:01:38;;;;;;;0.97;0.60;;;22.10;97.80;;;;;;1934343;73;25221;-57
2023/06/03 01:04:28;;;;;;;0.50;0.50;;;22.10;97.80;;;;;;1932519;73;25268;-57
2023/06/03 01:07:21;;;;;;;0.43;0.43;;;22.10;97.80;;;;;;1883520;74;25790;-59
2023/06/03 01:10:14;;;;;;;0.50;0.50;;;22.10;97.80;;;;;;1926516;73;25323;-58
2023/06/03 01:15:43;;;;;;;0.50;0.50;;;22.10;97.80;;;;;;2017031;69;28163;-58
2023/06/03 01:21:12;;;;;;;0.73;0.60;;;22.10;97.70;;;;;;1930821;72;27160;-58
2023/06/03 01:24:02;;;;;;;1.37;0.60;;;22.10;97.80;;;;;;1906671;75;25294;-58
2023/06/03 01:26:51;;;;;;;0.40;0.40;;;22.10;97.80;;;;;;1892837;74;25265;-60
2023/06/03 01:29:41;;;;;;;0.60;0.60;;;22.10;97.80;;;;;;1909740;73;25261;-59
2023/06/03 01:32:30;;;;;;;0.60;0.60;;;22.00;97.70;;;;;;1913946;74;25182;-58
2023/06/03 01:35:20;;;;;;;0.50;0.50;;;22.10;97.80;;;;;;1900665;73;25273;-58
2023/06/03 01:38:11;;;;;;;0.67;0.60;;;22.00;97.70;;;;;;1908875;75;25222;-56
2023/06/03 01:41:00;;;;;;;0.50;0.50;;;22.00;97.80;;;;;;1901961;74;25194;-59
2023/06/03 01:46:27;;;;;;;0.60;0.60;;;22.00;97.80;;;;;;1936003;72;27586;-57
2023/06/03 01:51:54;;;;;;;0.53;0.53;;;22.00;97.90;;;;;;1955480;72;27811;-57
2023/06/03 01:57:21;;;;;;;0.50;0.50;;;22.00;97.90;;;;;;1957954;72;27102;-56
2023/06/03 02:00:11;;;;;;;0.50;0.50;;;22.00;97.90;;;;;;1919345;73;25268;-58
2023/06/03 02:03:00;;;;;;;0.80;0.47;;;22.00;97.90;;;;;;1929503;73;25291;-59
2023/06/03 02:08:27;;;;;;;0.30;0.30;;;22.00;97.90;;;;;;1928168;72;27054;-57
2023/06/03 02:11:16;;;;;;;0.50;0.50;;;22.00;97.90;;;;;;1887140;75;25250;-58
2023/06/03 02:14:05;;;;;;;0.60;0.60;;;22.00;97.90;;;;;;1881284;75;25323;-57
2023/06/03 02:16:55;;;;;;;0.50;0.43;;;22.00;97.90;;;;;;1895804;75;25161;-58
2023/06/03 02:19:44;;;;;;;0.60;0.60;;;22.00;97.90;;;;;;1892513;75;25180;-58
2023/06/03 02:22:32;;;;;;;0.50;0.50;;;21.90;97.80;;;;;;1883211;75;25320;-58
2023/06/03 02:25:21;;;;;;;1.07;0.50;;;21.90;97.80;;;;;;1886703;75;25292;-57
2023/06/03 02:28:12;;;;;;;0.60;0.60;;;22.00;97.80;;;;;;1885698;75;25281;-56
2023/06/03 02:31:01;;;;;;;1.13;0.60;;;21.90;97.90;;;;;;1890951;75;25262;-58
2023/06/03 02:36:28;;;;;;;0.50;0.50;;;21.90;97.70;;;;;;1923190;73;27026;-57
2023/06/03 02:39:17;;;;;;;0.40;0.40;;;21.90;97.80;;;;;;1894580;74;25923;-57
2023/06/03 02:44:44;;;;;;;0.60;0.60;;;21.90;97.80;;;;;;1932138;73;27027;-58
2023/06/03 02:47:33;;;;;;;0.57;0.57;;;21.90;98.00;;;;;;1936293;73;25252;-56
2023/06/03 02:50:22;;;;;;;0.60;0.60;;;21.90;98.00;;;;;;1900315;74;25258;-57
2023/06/03 02:53:11;;;;;;;1.70;0.60;;;21.90;98.00;;;;;;1933010;73;25252;-56
2023/06/03 02:56:00;;;;;;;2.30;0.70;;;21.90;97.90;;;;;;1946141;73;25235;-58
2023/06/03 02:58:50;;;;;;;0.37;0.37;;;21.90;97.90;;;;;;1940923;73;25227;-58
2023/06/03 03:01:38;;;;;;;1.23;0.63;;;21.90;97.90;;;;;;1935821;73;25763;-59
2023/06/03 03:04:27;;;;;;;0.50;0.50;;;21.90;97.90;;;;;;1887099;74;25235;-58
2023/06/03 03:09:53;;;;;;;0.60;0.60;;;21.90;97.90;;;;;;1910843;74;27158;-57
2023/06/03 03:12:43;;;;;;;0.57;0.50;;;21.90;97.90;;;;;;1880283;76;25741;-58
2023/06/03 03:15:31;;;;;;;0.47;0.47;;;21.90;97.70;;;;;;1856417;76;25272;-58
2023/06/03 03:18:21;;;;;;;0.50;0.50;;;21.90;98.00;;;;;;1861259;76;25276;-57
2023/06/03 03:21:10;;;;;;;0.60;0.60;;;21.90;97.90;;;;;;1874093;75;25684;-59
2023/06/03 03:23:59;;;;;;;0.50;0.50;;;21.90;97.80;;;;;;1875882;76;25292;-59
2023/06/03 03:26:47;;;;;;;0.83;0.50;;;21.90;97.90;;;;;;1873539;76;25175;-58
2023/06/03 03:29:37;;;;;;;0.60;0.60;;;21.80;97.80;;;;;;1871284;76;25660;-57
2023/06/03 03:32:26;;;;;;;0.40;0.40;;;21.90;97.90;;;;;;1865085;76;25171;-59
2023/06/03 03:35:17;;;;;;;0.50;0.50;;;21.80;97.80;;;;;;1880006;76;25560;-58
2023/06/03 03:38:07;;;;;;;1.10;0.50;;;21.80;97.80;;;;;;1868057;76;25239;-56
2023/06/03 03:40:56;;;;;;;0.57;0.57;;;21.80;97.80;;;;;;1866536;76;25326;-55
2023/06/03 03:43:45;;;;;;;0.60;0.60;;;21.80;97.80;;;;;;1893576;75;25295;-57
2023/06/03 03:46:35;;;;;;;0.47;0.47;;;21.80;97.80;;;;;;1896201;75;25297;-58
2023/06/03 03:52:05;;;;;;;0.60;0.60;;;21.80;98.00;;;;;;1932133;72;27068;-58
2023/06/03 03:54:55;;;;;;;0.57;0.53;;;21.80;98.00;;;;;;1896182;74;25729;-58
2023/06/03 03:57:43;;;;;;;3.80;0.53;;;21.80;97.90;;;;;;1908458;75;25578;-57
2023/06/03 04:00:33;;;;;;;0.97;0.60;;;21.80;98.00;;;;;;1887112;75;25229;-57
2023/06/03 04:03:25;;;;;;;0.60;0.60;;;21.80;98.00;;;;;;1901376;75;25214;-58
2023/06/03 04:08:55;;;;;;;1.30;0.60;;;21.80;97.90;;;;;;1946209;72;27074;-57
2023/06/03 04:11:45;;;;;;;0.50;0.50;;;21.80;97.80;;;;;;1930370;73;25160;-58
2023/06/03 04:14:44;;;;;;;2.50;0.63;;;21.80;97.90;;;;;;1922306;73;25160;-59
2023/06/03 04:17:30;;;;;;;0.60;0.60;;;21.80;97.90;;;;;;1909728;73;25248;-57
2023/06/03 04:20:24;;;;;;;0.83;0.50;;;21.70;97.90;;;;;;1918078;73;25718;-57
2023/06/03 04:23:17;;;;;;;1.30;0.50;;;21.70;97.90;;;;;;1939108;73;25249;-58
2023/06/03 04:26:07;;;;;;;0.53;0.53;;;21.70;97.80;;;;;;1920994;73;26066;-59
2023/06/03 04:28:55;;;;;;;0.50;0.50;;;21.70;97.80;;;;;;1931795;73;25175;-58
2023/06/03 04:34:22;;;;;;;0.60;0.60;;;21.70;97.80;;;;;;1927294;73;27050;-57
2023/06/03 04:39:48;;;;;;;0.83;0.57;;;21.70;97.90;;;;;;1926134;72;27065;-56
2023/06/03 04:45:17;;;;;;;0.43;0.43;;;21.70;97.90;;;;;;1922386;72;27019;-57
2023/06/03 04:48:07;;;;;;;0.30;0.30;;;21.70;97.90;;;;;;1906971;74;25416;-58
2023/06/03 04:50:56;;;;;;;0.57;0.57;;;21.70;97.80;;;;;;1899121;75;25302;-58
2023/06/03 04:53:45;;;;;;;0.50;0.50;;;21.70;97.80;;;;;;1895734;74;25230;-58
2023/06/03 04:56:34;;;;;;;0.60;0.60;;;21.70;97.80;;;;;;1897354;75;25306;-59
2023/06/03 04:59:22;;;;;;;0.67;0.60;;;21.70;97.80;;;;;;1907469;74;25266;-59
2023/06/03 05:04:49;;;;;;;0.67;0.63;;;21.70;97.70;;;;;;1939394;72;27536;-58
2023/06/03 05:07:39;;;;;;;0.40;0.40;;;21.70;97.70;;;;;;1883604;75;25250;-58
2023/06/03 05:10:29;;;;;;;0.67;0.67;;;21.70;97.80;;;;;;1883653;75;25526;-55
2023/06/03 05:15:55;;;;;;;0.57;0.50;;;21.70;98.00;;;;;;1927139;73;27180;-58
2023/06/03 05:18:45;;;;;;;0.60;0.60;;;21.70;97.80;;;;;;1902518;73;25795;-57
2023/06/03 05:21:34;;;;;;;0.50;0.50;;;21.70;97.80;;;;;;1913843;75;25765;-57
2023/06/03 05:24:23;;;;;;;0.43;0.43;;;21.70;97.80;;;;;;1911123;75;25275;-58
2023/06/03 05:27:12;;;;;;;0.90;0.60;;;21.70;97.90;;;;;;1905289;75;25764;-58
2023/06/03 05:30:01;;;;;;;0.60;0.60;;;21.70;97.80;;;;;;1901303;75;25244;-57
2023/06/03 05:32:50;;;;;;;0.53;0.53;;;21.70;97.80;;;;;;1898209;75;25240;-58
2023/06/03 05:35:39;;;;;;;0.60;0.60;;;21.70;97.80;;;;;;1891739;73;25203;-58
2023/06/03 05:38:28;;;;;;;0.50;0.50;;;21.70;97.80;;;;;;1893570;75;25224;-58
2023/06/03 05:41:17;;;;;;;0.93;0.50;;;21.70;97.80;;;;;;1910518;75;25805;-59
2023/06/03 05:46:43;;;;;;;0.60;0.60;;;21.70;97.80;;;;;;1937238;72;26956;-56
2023/06/03 05:49:32;;;;;;;0.80;0.60;;;21.70;97.80;;;;;;1903807;75;25265;-58
2023/06/03 05:54:59;;;;;;;0.67;0.67;;;21.70;97.80;;;;;;1912442;74;27036;-58
2023/06/03 05:57:48;;;;;;;0.70;0.70;;;21.60;97.80;;;;;;1866538;76;25244;-57
2023/06/03 06:00:37;;;;;;;0.60;0.60;;;21.70;97.80;;;;;;1875638;76;25195;-58
2023/06/03 06:03:25;;;;;;;0.60;0.60;;;21.70;97.80;;;;;;1873756;74;25296;-59
2023/06/03 06:06:15;;;;;;;0.70;0.70;;;21.70;97.70;;;;;;1872347;74;25176;-58
2023/06/03 06:09:04;;;;;;;0.70;0.70;;;21.70;97.80;;;;;;1870663;76;25250;-58
2023/06/03 06:11:54;;;;;;;0.60;0.60;;;21.70;97.80;;;;;;1867941;76;25179;-55
2023/06/03 06:14:43;;;;;;;0.60;0.53;;;21.70;97.90;;;;;;1865138;76;25655;-57
2023/06/03 06:17:32;;;;;;;0.50;0.50;;;21.70;97.80;;;;;;1865381;76;25327;-57
2023/06/03 06:20:21;;;;;;;0.67;0.67;;;21.70;97.80;;;;;;1863773;76;25276;-57
2023/06/03 06:23:10;;;;;;;0.60;0.60;;;21.70;97.90;;;;;;1869418;76;25657;-57
2023/06/03 06:25:59;;;;;;;0.70;0.70;;;21.70;97.90;;;;;;1878010;76;25830;-59
2023/06/03 06:28:48;;;;;;;0.70;0.70;;;21.70;97.90;;;;;;1873635;76;25814;-58
2023/06/03 06:34:17;;;;;;;6.03;0.90;;;21.70;97.90;;;;;;1929539;72;27039;-57
2023/06/03 06:37:09;;;;;;;0.70;0.70;;;21.70;97.90;;;;;;1898296;75;25286;-56
2023/06/03 06:42:37;;;;;;;0.60;0.60;;;21.70;98.00;;;;;;1929454;72;27062;-58
2023/06/03 06:48:06;;;;;;;0.83;0.83;;;21.70;98.00;;;;;;1915088;72;27109;-58
2023/06/03 06:50:58;;;;;;;1.07;1.00;;;21.80;98.20;;;;;;1910786;75;25329;-57
2023/06/03 06:53:52;;;;;;;0.83;0.80;;;21.80;98.20;;;;;;1902767;75;25309;-57
2023/06/03 06:56:41;;;;;;;0.80;0.80;;;21.80;98.30;;;;;;1911907;74;25684;-58
2023/06/03 06:59:30;;;;;;;0.80;0.80;;;21.80;98.40;;;;;;1903222;73;25290;-59
2023/06/03 07:02:19;;;;;;;0.87;0.87;;;21.80;98.40;;;;;;1897387;75;25705;-58
2023/06/03 07:07:48;;;;;;;0.73;0.73;;;21.80;98.40;;;;;;1930426;74;27023;-57
2023/06/03 07:13:16;;;;;;;0.83;0.70;;;21.80;98.50;;;;;;1915817;74;27152;-58
2023/06/03 07:16:05;;;;;;;0.60;0.60;;;21.80;98.90;;;;;;1904744;75;25273;-57
2023/06/03 07:18:53;;;;;;;0.80;0.80;;;21.80;98.70;;;;;;1890340;75;25179;-59
2023/06/03 07:21:42;;;;;;;0.80;0.80;;;21.90;98.70;;;;;;1893179;75;25312;-58
2023/06/03 07:24:32;;;;;;;5.30;0.87;;;21.90;98.80;;;;;;1899738;74;25306;-56
2023/06/03 07:30:03;;;;;;;0.70;0.70;;;21.90;98.70;;;;;;1906223;73;27151;-56
2023/06/03 07:32:55;;;;;;;0.77;0.77;;;21.90;98.80;;;;;;1878858;76;25282;-58
2023/06/03 07:35:44;;;;;;;0.77;0.77;;;21.90;98.80;;;;;;1865351;76;25338;-59
2023/06/03 07:39:04;;;;;;;0.80;0.80;;;21.90;98.80;;;;;;1862039;76;25790;-59
2023/06/03 07:41:56;;;;;;;0.57;0.57;;;21.90;98.80;;;;;;1868017;76;25721;-58
2023/06/03 07:44:46;;;;;;;0.70;0.70;;;21.90;98.80;;;;;;1844490;77;26532;-57
2023/06/03 07:47:36;;;;;;;0.70;0.70;;;21.90;98.80;;;;;;1846251;77;25286;-57
2023/06/03 07:50:26;;;;;;;0.60;0.60;;;21.90;98.90;;;;;;1831266;77;25189;-58
2023/06/03 07:55:57;;;;;;;0.90;0.90;;;22.00;99.00;;;;;;1942038;72;27559;-57
2023/06/03 08:01:25;;;;;;;0.80;0.80;;;22.00;99.10;;;;;;1916896;74;27095;-58
2023/06/03 08:07:19;;;;;;;0.53;0.53;;;22.00;99.10;;;;;;1915070;74;27087;-58
2023/06/03 08:10:12;;;;;;;0.80;0.70;;;22.00;99.20;;;;;;1859457;76;25250;-58
2023/06/03 08:13:00;;;;;;;0.60;0.60;;;22.00;99.20;;;;;;1873823;76;25244;-59
2023/06/03 08:15:49;;;;;;;0.63;0.63;;;22.00;99.10;;;;;;1877053;76;25249;-59
2023/06/03 08:18:44;;;;;;;0.70;0.70;;;22.00;99.20;;;;;;1877054;76;25766;-60
2023/06/03 08:21:36;;;;;;;0.83;0.70;;;22.00;99.20;;;;;;1881733;76;25223;-58
2023/06/03 08:24:25;;;;;;;0.70;0.70;;;22.00;99.10;;;;;;1873774;76;25235;-59
2023/06/03 08:29:52;;;;;;;0.70;0.70;;;22.00;99.10;;;;;;1932519;72;27027;-58
2023/06/03 08:32:42;;;;;;;0.63;0.60;;;22.00;99.20;;;;;;1897902;75;25752;-57
2023/06/03 08:38:09;;;;;;;2.13;0.70;;;22.10;99.10;;;;;;1914660;73;27079;-57
2023/06/03 08:40:59;;;;;;;0.80;0.80;;;22.10;99.20;;;;;;1899842;74;25285;-58
2023/06/03 08:46:32;;;;;;;1.43;0.80;;;22.10;99.30;;;;;;1938873;72;27167;-57
2023/06/03 08:49:24;;;;;;;0.70;0.70;;;22.20;99.70;;;;;;1888473;75;25916;-59
2023/06/03 08:52:13;;;;;;;0.70;0.70;;;22.20;99.20;;;;;;1900671;73;25182;-56
2023/06/03 08:55:02;;;;;;;1.90;0.70;;;22.20;99.30;;;;;;1901154;75;25244;-57
2023/06/03 08:57:55;;;;;;;0.60;0.60;;;22.20;99.20;;;;;;1894033;74;25220;-57
2023/06/03 09:00:45;;;;;;;0.70;0.70;;;22.30;99.30;;;;;;1905142;74;25165;-56
2023/06/03 09:03:36;;;;;;;0.70;0.70;;;22.30;99.20;;;;;;1889171;74;25228;-56
2023/06/03 09:06:25;;;;;;;0.60;0.60;;;22.30;99.20;;;;;;1895648;75;25306;-57
2023/06/03 09:11:55;;;;;;;4.57;0.60;;;22.30;99.60;;;;;;1900807;74;27053;-57
2023/06/03 09:17:27;;;;;;;1.50;0.60;;;22.30;99.60;;;;;;1907534;73;27108;-58
2023/06/03 09:22:54;;;;;;;1.13;1.03;;;22.30;99.90;;;;;;1937648;72;27195;-58
2023/06/03 09:25:44;;;;;;;1.50;0.90;;;22.40;99.90;;;;;;1892488;73;25268;-59
2023/06/03 09:28:33;;;;;;;1.73;1.20;;;22.40;99.90;;;;;;1892643;73;25665;-59
2023/06/03 09:31:24;;;;;;;1.33;0.90;;;22.40;99.90;;;;;;1907766;73;25710;-58
2023/06/03 09:34:14;;;;;;;0.90;0.90;;;22.40;99.90;;;;;;1912061;73;25424;-58
2023/06/03 09:37:08;;;;;;;0.80;0.80;;;22.40;99.90;;;;;;1900536;73;25691;-58
2023/06/03 09:39:57;;;;;;;0.83;0.83;;;22.40;99.90;;;;;;1901489;74;25307;-57
2023/06/03 09:42:46;;;;;;;0.93;0.93;;;22.40;99.90;;;;;;1901796;73;25788;-57
2023/06/03 09:45:36;;;;;;;1.77;0.83;;;22.40;99.90;;;;;;1877827;75;25221;-57
2023/06/03 09:51:04;;;;;;;3.50;1.00;;;22.40;99.90;;;;;;1919078;72;27197;-58
2023/06/03 09:53:59;;;;;;;0.83;0.60;;;22.50;99.90;;;;;;1926054;73;25215;-59
2023/06/03 09:56:48;;;;;;;3.77;0.90;;;22.50;99.90;;;;;;1925344;73;25297;-58
2023/06/03 09:59:36;;;;;;;1.03;0.93;;;22.50;99.90;;;;;;1922305;73;25327;-58
2023/06/03 10:02:25;;;;;;;1.30;0.90;;;22.50;99.90;;;;;;1935810;73;25231;-60
2023/06/03 10:05:28;;;;;;;3.60;1.00;;;22.50;99.90;;;;;;1856833;75;25201;-58
2023/06/03 10:08:18;;;;;;;1.00;0.80;;;22.50;99.90;;;;;;1922620;73;25346;-59
2023/06/03 10:13:46;;;;;;;1.40;1.03;;;22.50;99.90;;;;;;1949410;72;27459;-59
2023/06/03 10:16:35;;;;;;;2.33;0.70;;;22.60;99.90;;;;;;1935006;73;25161;-59
2023/06/03 10:19:26;;;;;;;2.20;0.80;;;22.60;99.90;;;;;;1922271;73;25214;-58
2023/06/03 10:22:17;;;;;;;3.27;1.00;;;22.60;99.90;;;;;;1922510;73;25232;-56
2023/06/03 10:25:10;;;;;;;1.03;0.80;;;22.60;99.90;;;;;;1923667;73;26427;-58
2023/06/03 10:27:59;;;;;;;10.27;1.47;;;22.50;99.90;;;;;;1931989;73;25316;-56
2023/06/03 10:30:50;;;;;;;2.40;1.07;;;22.60;99.90;;;;;;1937587;73;25230;-57
2023/06/03 10:33:40;;;;;;;6.77;1.20;;;22.60;99.90;;;;;;1931784;73;25266;-63
2023/06/03 10:36:30;;;;;;;14.20;1.30;;;22.60;99.90;;;;;;1936853;73;25215;-58
2023/06/03 10:39:19;;;;;;;4.57;1.10;;;22.60;99.90;;;;;;1940985;73;25193;-57
2023/06/03 10:42:11;;;;;;;7.43;1.03;;;22.60;99.90;;;;;;1926915;73;25285;-58
2023/06/03 10:44:59;;;;;;;5.30;1.20;;;22.60;99.90;;;;;;1879186;75;25686;-58
2023/06/03 10:47:51;;;;;;;6.57;1.37;;;22.60;99.90;;;;;;1896129;74;25792;-59
2023/06/03 10:53:26;;;;;;;5.87;1.03;;;22.60;99.90;;;;;;1918624;73;27144;-57
2023/06/03 10:59:03;;;;;;;1.23;0.90;;;22.60;99.90;;;;;;1927699;73;27530;-55
2023/06/03 11:02:02;;;;;;;3.83;1.23;;;22.50;99.90;;;;;;1909060;74;25742;-57
2023/06/03 11:04:51;;;;;;;4.07;1.37;;;22.50;99.90;;;;;;1897164;74;25249;-57
2023/06/03 11:07:46;;;;;;;5.60;1.20;;;22.50;99.90;;;;;;1891859;75;25682;-58
2023/06/03 11:10:44;;;;;;;4.13;0.97;;;22.50;99.90;;;;;;1905139;75;25772;-59
2023/06/03 11:16:22;;;;;;;2.67;1.10;;;22.50;99.90;;;;;;1908317;74;27138;-57
2023/06/03 11:19:30;;;;;;;2.57;1.20;;;22.60;99.90;;;;;;1869954;76;25682;-58
2023/06/03 11:22:43;;;;;;;4.90;1.23;;;22.60;99.90;;;;;;1866894;76;25181;-58
2023/06/03 11:25:38;;;;;;;4.83;1.20;;;22.50;99.90;;;;;;1880913;76;25764;-59
2023/06/03 11:28:36;;;;;;;4.27;1.10;;;22.50;99.90;;;;;;1880341;76;25730;-58
2023/06/03 11:31:27;;;;;;;8.20;1.40;;;22.50;99.90;;;;;;1841014;77;25268;-57
2023/06/03 11:34:26;;;;;;;3.00;1.10;;;22.50;99.90;;;;;;1871963;76;25266;-57
2023/06/03 11:37:17;;;;;;;2.23;1.07;;;22.50;99.90;;;;;;1841564;77;25824;-59
2023/06/03 11:40:08;;;;;;;2.17;1.10;;;22.50;99.90;;;;;;1873772;76;25312;-58
2023/06/03 11:43:09;;;;;;;1.40;1.00;;;22.50;99.90;;;;;;1888429;73;25879;-59
2023/06/03 11:46:06;;;;;;;2.70;0.77;;;22.50;99.90;;;;;;1909889;75;26505;-58
2023/06/03 11:49:05;;;;;;;3.37;1.20;;;22.50;99.90;;;;;;1902113;75;25242;-57
2023/06/03 11:51:57;;;;;;;6.00;1.03;;;22.50;99.90;;;;;;1885662;75;25762;-54
2023/06/03 11:54:48;;;;;;;2.80;1.00;;;22.50;99.90;;;;;;1887034;74;25583;-58
2023/06/03 11:57:37;;;;;;;4.37;1.10;;;22.50;99.90;;;;;;1897515;75;25241;-58
2023/06/03 12:00:26;;;;;;;1.70;1.10;;;22.50;99.90;;;;;;1894600;75;25244;-55
2023/06/03 12:05:55;;;;;;;1.50;0.87;;;22.50;99.90;;;;;;1920570;74;26969;-58
2023/06/03 12:08:49;;;;;;;1.20;1.00;;;22.60;99.90;;;;;;1911510;74;25226;-57
2023/06/03 12:14:29;;;;;;;2.53;1.20;;;22.60;99.90;;;;;;1940520;72;27019;-57
2023/06/03 12:17:19;;;;;;;3.13;0.83;;;22.60;99.90;;;;;;1909485;75;25376;-59
2023/06/03 12:22:50;;;;;;;8.20;1.47;;;22.60;99.90;;;;;;1919994;72;27165;-57
2023/06/03 12:25:39;;;;;;;4.30;1.10;;;22.50;99.90;;;;;;1908130;74;25303;-59
2023/06/03 12:28:29;;;;;;;5.53;1.00;;;22.50;99.90;;;;;;1896510;74;25896;-58
2023/06/03 12:31:20;;;;;;;6.57;0.90;;;22.60;99.90;;;;;;1906415;75;25375;-57
2023/06/03 12:34:11;;;;;;;2.23;0.80;;;22.60;99.90;;;;;;1897353;74;25715;-57
2023/06/03 12:37:00;;;;;;;3.17;1.00;;;22.60;99.90;;;;;;1912680;75;25281;-57
2023/06/03 12:39:50;;;;;;;4.10;1.10;;;22.60;99.90;;;;;;1914850;74;25631;-59
2023/06/03 12:42:42;;;;;;;5.30;0.93;;;22.60;99.90;;;;;;1896429;75;25281;-57
2023/06/03 12:48:11;;;;;;;4.20;1.30;;;22.60;99.90;;;;;;1908987;74;27099;-57
2023/06/03 12:51:00;;;;;;;6.07;1.13;;;22.60;99.90;;;;;;1877344;75;25756;-56
2023/06/03 12:53:49;;;;;;;1.10;1.00;;;22.60;99.90;;;;;;1878379;75;25324;-59
2023/06/03 12:56:38;;;;;;;3.43;1.10;;;22.60;99.90;;;;;;1868610;76;25263;-60
2023/06/03 13:02:06;;;;;;;3.77;0.90;;;22.60;99.90;;;;;;1960385;72;27042;-57
2023/06/03 13:04:56;;;;;;;3.17;1.07;;;22.60;99.90;;;;;;1928092;73;25677;-56
2023/06/03 13:07:46;;;;;;;3.23;0.90;;;22.60;99.90;;;;;;1932033;73;25692;-57
2023/06/03 13:10:35;;;;;;;4.60;0.90;;;22.60;99.90;;;;;;1917475;73;25195;-59
2023/06/03 13:13:23;;;;;;;2.53;0.83;;;22.60;99.90;;;;;;1921220;73;25246;-58
2023/06/03 13:16:13;;;;;;;1.63;0.90;;;22.60;99.90;;;;;;1924340;73;25165;-58
2023/06/03 13:19:02;;;;;;;1.87;1.10;;;22.60;99.90;;;;;;1915741;73;25219;-58
2023/06/03 13:21:51;;;;;;;2.83;1.00;;;22.60;99.90;;;;;;1933886;72;25758;-58
2023/06/03 13:24:40;;;;;;;1.43;0.97;;;22.60;99.90;;;;;;1929366;73;25511;-58
2023/06/03 13:27:30;;;;;;;2.70;1.00;;;22.50;99.90;;;;;;1924005;73;25744;-57
2023/06/03 13:30:18;;;;;;;7.30;1.00;;;22.60;99.90;;;;;;1933634;73;25246;-58
2023/06/03 13:33:08;;;;;;;1.23;1.00;;;22.50;99.90;;;;;;1937617;73;25260;-58
2023/06/03 13:35:57;;;;;;;1.43;0.90;;;22.50;99.90;;;;;;1916154;73;25304;-56
2023/06/03 13:41:23;;;;;;;2.90;1.00;;;22.50;99.90;;;;;;1922632;74;27518;-56
2023/06/03 13:44:12;;;;;;;1.20;1.00;;;22.50;99.90;;;;;;1880871;75;25288;-58
2023/06/03 13:47:03;;;;;;;0.83;0.80;;;22.50;99.90;;;;;;1903428;75;25264;-57
2023/06/03 13:49:53;;;;;;;3.63;1.07;;;22.50;99.90;;;;;;1881989;75;25250;-57
2023/06/03 13:52:42;;;;;;;2.60;0.93;;;22.50;99.90;;;;;;1890663;74;25606;-57
2023/06/03 13:55:31;;;;;;;1.87;0.83;;;22.50;99.90;;;;;;1907693;75;25248;-57
2023/06/03 13:58:21;;;;;;;3.37;1.10;;;22.50;99.90;;;;;;1900287;75;25696;-58
2023/06/03 14:01:09;;;;;;;2.93;0.80;;;22.50;99.90;;;;;;1906854;75;25248;-59
2023/06/03 14:03:58;;;;;;;2.73;0.90;;;22.50;99.90;;;;;;1900003;75;25252;-58
2023/06/03 14:06:47;;;;;;;1.83;0.80;;;22.50;99.90;;;;;;1883130;75;25767;-58
2023/06/03 14:09:37;;;;;;;1.17;0.80;;;22.50;99.80;;;;;;1913055;74;25165;-56
2023/06/03 14:12:26;;;;;;;0.90;0.90;;;22.50;99.80;;;;;;1906584;75;25754;-56
2023/06/03 14:17:54;;;;;;;2.07;1.10;;;22.50;99.80;;;;;;1931956;74;27059;-56
2023/06/03 14:20:42;;;;;;;1.40;1.00;;;22.50;99.70;;;;;;1894211;75;25724;-58
2023/06/03 14:23:32;;;;;;;0.83;0.77;;;22.50;99.70;;;;;;1885853;75;25256;-57
2023/06/03 14:26:22;;;;;;;1.57;0.80;;;22.50;99.70;;;;;;1883240;75;25223;-59
2023/06/03 14:29:12;;;;;;;0.87;0.87;;;22.50;99.70;;;;;;1894094;75;25245;-57
2023/06/03 14:32:01;;;;;;;1.13;0.70;;;22.50;99.70;;;;;;1911941;75;25295;-57
2023/06/03 14:34:50;;;;;;;1.43;0.97;;;22.50;99.60;;;;;;1892570;75;25832;-56
2023/06/03 14:37:39;;;;;;;1.07;0.97;;;22.50;99.60;;;;;;1903091;75;25281;-57
2023/06/03 14:40:29;;;;;;;0.90;0.90;;;22.50;99.60;;;;;;1902058;75;25756;-59
2023/06/03 14:43:18;;;;;;;1.90;0.70;;;22.50;99.60;;;;;;1907620;74;25313;-58
2023/06/03 14:48:46;;;;;;;1.13;0.80;;;22.50;99.60;;;;;;1912326;73;27124;-56
2023/06/03 14:51:36;;;;;;;0.70;0.70;;;22.50;99.60;;;;;;1862299;77;25259;-57
2023/06/03 14:57:03;;;;;;;0.70;0.70;;;22.50;99.50;;;;;;1928954;72;27093;-57
2023/06/03 14:59:51;;;;;;;1.67;0.90;;;22.50;99.50;;;;;;1908770;74;25345;-57
2023/06/03 15:02:41;;;;;;;0.80;0.80;;;22.50;99.50;;;;;;1890769;75;26298;-57
2023/06/03 15:05:30;;;;;;;0.70;0.70;;;22.50;99.50;;;;;;1882999;75;25207;-56
2023/06/03 15:08:19;;;;;;;0.70;0.70;;;22.50;99.50;;;;;;1883509;75;25246;-57
2023/06/03 15:11:08;;;;;;;1.13;0.87;;;22.50;99.50;;;;;;1864313;76;25304;-57
2023/06/03 15:13:57;;;;;;;0.83;0.80;;;22.50;99.50;;;;;;1893994;75;25191;-57
2023/06/03 15:16:46;;;;;;;0.97;0.87;;;22.50;99.50;;;;;;1897843;74;25761;-57
2023/06/03 15:19:36;;;;;;;0.90;0.90;;;22.60;99.50;;;;;;1907917;74;25338;-58
2023/06/03 15:22:25;;;;;;;0.80;0.80;;;22.60;99.50;;;;;;1900704;74;25854;-58
2023/06/03 15:25:15;;;;;;;0.80;0.80;;;22.60;99.40;;;;;;1902787;74;25266;-58
2023/06/03 15:28:04;;;;;;;1.67;0.90;;;22.60;99.50;;;;;;1904878;74;25181;-59
2023/06/03 15:30:54;;;;;;;1.37;1.00;;;22.50;99.50;;;;;;1901816;74;25242;-59
2023/06/03 15:33:43;;;;;;;1.40;1.03;;;22.60;99.60;;;;;;1892247;74;25309;-58
2023/06/03 15:36:32;;;;;;;2.03;0.80;;;22.60;99.90;;;;;;1876130;75;25264;-58
2023/06/03 15:39:21;;;;;;;1.90;1.10;;;22.50;99.60;;;;;;1871723;76;25264;-57
2023/06/03 15:44:48;;;;;;;2.10;0.70;;;22.60;99.50;;;;;;1921630;74;27012;-57
2023/06/03 15:47:37;;;;;;;1.13;0.83;;;22.60;99.50;;;;;;1897183;75;25552;-57
2023/06/03 15:50:26;;;;;;;1.37;0.97;;;22.60;99.40;;;;;;1891048;73;25635;-57
2023/06/03 15:53:15;;;;;;;1.77;0.80;;;22.60;99.40;;;;;;1902796;75;25725;-58
2023/06/03 15:56:04;;;;;;;2.33;1.00;;;22.60;99.40;;;;;;1900365;75;25263;-56
2023/06/03 15:58:52;;;;;;;2.57;0.83;;;22.60;99.40;;;;;;1897722;75;25250;-57
2023/06/03 16:01:41;;;;;;;0.90;0.90;;;22.60;99.40;;;;;;1909664;75;25315;-57
2023/06/03 16:04:34;;;;;;;0.80;0.80;;;22.60;99.40;;;;;;1907011;73;25855;-57
2023/06/03 16:07:21;;;;;;;1.33;0.87;;;22.60;99.30;;;;;;1900413;75;25240;-58
2023/06/03 16:12:50;;;;;;;1.27;0.80;;;22.60;99.40;;;;;;1938655;74;27636;-55
2023/06/03 16:15:39;;;;;;;0.80;0.80;;;22.60;99.70;;;;;;1904053;75;25259;-58
2023/06/03 16:21:05;;;;;;;0.87;0.83;;;22.60;99.30;;;;;;1929448;73;27142;-58
2023/06/03 16:26:33;;;;;;;1.03;0.90;;;22.60;98.80;;;;;;1925657;72;26988;-58
2023/06/03 16:29:22;;;;;;;5.90;0.90;;;22.60;99.60;;;;;;1857266;76;25275;-57
2023/06/03 16:32:11;;;;;;;3.30;1.03;;;22.60;99.30;;;;;;1912124;73;26036;-57
2023/06/03 16:35:01;;;;;;;2.90;0.80;;;22.60;99.40;;;;;;1908076;75;25222;-57
2023/06/03 16:37:50;;;;;;;4.23;0.90;;;22.60;99.40;;;;;;1902170;75;25534;-59
2023/06/03 16:40:39;;;;;;;4.43;0.97;;;22.50;99.60;;;;;;1903742;75;25811;-61
2023/06/03 16:43:28;;;;;;;15.40;1.20;;;22.60;99.90;;;;;;1879957;75;25681;-59
2023/06/03 16:46:19;;;;;;;6.37;0.93;;;22.60;99.90;;;;;;1868717;76;25189;-58
2023/06/03 16:49:08;;;;;;;11.30;1.20;;;22.60;99.90;;;;;;1866587;76;25260;-56
2023/06/03 16:51:56;;;;;;;2.87;0.90;;;22.60;99.90;;;;;;1871286;76;25820;-58
2023/06/03 16:57:24;;;;;;;1.53;1.00;;;22.60;99.90;;;;;;1950117;72;27455;-57
2023/06/03 17:02:52;;;;;;;6.37;1.10;;;22.60;99.90;;;;;;1938279;72;27085;-57
2023/06/03 17:05:42;;;;;;;1.80;0.90;;;22.60;99.90;;;;;;1880875;75;25762;-59
2023/06/03 17:08:31;;;;;;;3.77;1.00;;;22.60;99.90;;;;;;1898721;75;25338;-57
2023/06/03 17:11:19;;;;;;;2.83;1.10;;;22.60;99.90;;;;;;1890502;75;25183;-59
2023/06/03 17:14:08;;;;;;;4.07;0.90;;;22.60;99.90;;;;;;1902967;75;25636;-58